createdAt,value
2019-02-24T00:00:04.793Z,-3.73
2019-02-24T00:02:34.352Z,-3.75
2019-02-24T00:05:03.916Z,-3.78
2019-02-24T00:07:33.529Z,-3.78
2019-02-24T00:10:03.055Z,-3.83
2019-02-24T00:12:32.712Z,-3.89
2019-02-24T00:15:02.249Z,-3.92
2019-02-24T00:17:31.806Z,-3.92
2019-02-24T00:20:01.463Z,-3.87
2019-02-24T00:22:30.985Z,-3.87
2019-02-24T00:25:00.578Z,-3.89
2019-02-24T00:27:30.238Z,-3.84
2019-02-24T00:29:59.802Z,-3.84
2019-02-24T00:32:29.322Z,-3.87
2019-02-24T00:34:58.873Z,-3.88
2019-02-24T00:37:28.415Z,-3.89
2019-02-24T00:39:58.121Z,-3.93
2019-02-24T00:42:27.632Z,-3.93
2019-02-24T00:44:57.235Z,-3.96
2019-02-24T00:47:26.790Z,-3.98
2019-02-24T00:49:56.328Z,-4.08
2019-02-24T00:52:25.866Z,-4.08
2019-02-24T00:54:55.524Z,-4.33
2019-02-24T00:57:25.076Z,-4.33
2019-02-24T00:59:54.628Z,-4.48
2019-02-24T01:02:24.454Z,-4.58
2019-02-24T01:04:53.970Z,-4.66
2019-02-24T01:07:23.574Z,-4.70
2019-02-24T01:09:53.115Z,-4.70
2019-02-24T01:12:22.845Z,-4.73
2019-02-24T01:14:52.392Z,-4.77
2019-02-24T01:17:21.949Z,-4.77
2019-02-24T01:19:51.635Z,-4.87
2019-02-24T01:22:21.238Z,-4.87
2019-02-24T01:24:50.870Z,-4.91
2019-02-24T01:27:20.408Z,-4.96
2019-02-24T01:29:49.971Z,-5.02
2019-02-24T01:32:19.521Z,-5.02
2019-02-24T01:34:49.150Z,-5.02
2019-02-24T01:37:18.674Z,-5.00
2019-02-24T01:39:48.192Z,-4.98
2019-02-24T01:42:17.745Z,-4.96
2019-02-24T01:44:47.293Z,-4.80
2019-02-24T01:47:16.907Z,-4.80
2019-02-24T01:49:46.482Z,-4.76
2019-02-24T01:52:16.022Z,-4.77
2019-02-24T01:54:45.634Z,-4.79
2019-02-24T01:57:15.207Z,-4.89
2019-02-24T01:59:44.833Z,-4.88
2019-02-24T02:02:14.418Z,-4.88
2019-02-24T02:04:43.980Z,-5.04
2019-02-24T02:07:13.505Z,-5.04
2019-02-24T02:09:43.148Z,-5.20
2019-02-24T02:12:12.694Z,-5.21
2019-02-24T02:14:42.354Z,-5.21
2019-02-24T02:17:11.959Z,-5.13
2019-02-24T02:19:41.520Z,-5.10
2019-02-24T02:22:11.079Z,-5.13
2019-02-24T02:24:40.708Z,-5.13
2019-02-24T02:27:10.231Z,-5.20
2019-02-24T02:29:39.793Z,-5.30
2019-02-24T02:32:09.325Z,-5.33
2019-02-24T02:34:38.859Z,-5.37
2019-02-24T02:37:08.445Z,-5.51
2019-02-24T02:39:38.257Z,-5.62
2019-02-24T02:42:07.823Z,-5.62
2019-02-24T02:44:37.390Z,-5.65
2019-02-24T02:47:07.044Z,-5.80
2019-02-24T02:49:36.677Z,-5.80
2019-02-24T02:52:06.211Z,-5.83
2019-02-24T02:54:35.771Z,-5.80
2019-02-24T02:57:05.304Z,-5.71
2019-02-24T02:59:34.840Z,-5.71
2019-02-24T03:02:04.362Z,-5.56
2019-02-24T03:04:34.027Z,-5.56
2019-02-24T03:07:25.402Z,-5.48
2019-02-24T03:09:54.985Z,-5.39
2019-02-24T03:12:24.510Z,-5.25
2019-02-24T03:14:54.046Z,-5.14
2019-02-24T03:17:24.482Z,-5.07
2019-02-24T03:19:54.019Z,-5.07
2019-02-24T03:22:23.544Z,-5.00
2019-02-24T03:24:53.115Z,-4.92
2019-02-24T03:27:22.786Z,-4.92
2019-02-24T03:29:52.326Z,-4.83
2019-02-24T03:32:21.903Z,-4.74
2019-02-24T03:34:51.458Z,-4.67
2019-02-24T03:37:21.024Z,-4.61
2019-02-24T03:39:50.575Z,-4.58
2019-02-24T03:42:20.103Z,-4.58
2019-02-24T03:44:49.638Z,-4.44
2019-02-24T03:47:19.183Z,-4.38
2019-02-24T03:49:48.776Z,-4.33
2019-02-24T03:52:18.304Z,-4.34
2019-02-24T03:54:47.858Z,-4.33
2019-02-24T03:57:17.405Z,-4.30
2019-02-24T03:59:47.043Z,-4.30
2019-02-24T04:02:16.613Z,-4.31
2019-02-24T04:04:46.182Z,-4.35
2019-02-24T04:07:15.730Z,-4.35
2019-02-24T04:09:45.262Z,-4.20
2019-02-24T04:12:14.811Z,-4.20
2019-02-24T04:14:44.367Z,-4.21
2019-02-24T04:17:13.920Z,-4.20
2019-02-24T04:19:43.512Z,-4.21
2019-02-24T04:22:13.127Z,-4.32
2019-02-24T04:24:42.654Z,-4.21
2019-02-24T04:27:12.241Z,-4.19
2019-02-24T04:29:41.823Z,-4.22
2019-02-24T04:32:11.501Z,-4.17
2019-02-24T04:34:41.129Z,-4.24
2019-02-24T04:37:10.657Z,-4.24
2019-02-24T04:39:40.202Z,-4.33
2019-02-24T04:42:09.765Z,-4.33
2019-02-24T04:44:39.304Z,-4.46
2019-02-24T04:47:08.946Z,-4.46
2019-02-24T04:49:38.484Z,-4.43
2019-02-24T04:52:08.011Z,-4.43
2019-02-24T04:54:37.574Z,-4.41
2019-02-24T04:57:07.134Z,-4.41
2019-02-24T04:59:36.766Z,-4.31
2019-02-24T05:02:06.329Z,-4.29
2019-02-24T05:04:35.988Z,-4.31
2019-02-24T05:07:05.517Z,-4.19
2019-02-24T05:09:35.068Z,-4.19
2019-02-24T05:12:04.615Z,-4.20
2019-02-24T05:14:34.163Z,-4.20
2019-02-24T05:17:03.763Z,-4.20
2019-02-24T05:19:33.411Z,-4.27
2019-02-24T05:22:03.190Z,-4.37
2019-02-24T05:24:32.763Z,-4.37
2019-02-24T05:27:02.397Z,-4.37
2019-02-24T05:29:31.927Z,-4.37
2019-02-24T05:32:01.478Z,-4.42
2019-02-24T05:34:31.019Z,-4.42
2019-02-24T05:37:00.575Z,-4.33
2019-02-24T05:39:30.149Z,-4.24
2019-02-24T05:41:59.687Z,-4.17
2019-02-24T05:44:29.280Z,-4.07
2019-02-24T05:46:58.804Z,-4.07
2019-02-24T05:49:28.463Z,-3.90
2019-02-24T05:51:58.105Z,-3.79
2019-02-24T05:54:27.722Z,-3.79
2019-02-24T05:56:57.320Z,-3.65
2019-02-24T05:59:26.940Z,-3.48
2019-02-24T06:01:56.463Z,-3.35
2019-02-24T06:04:26.078Z,-3.21
2019-02-24T06:06:55.639Z,-3.03
2019-02-24T06:09:25.289Z,-2.85
2019-02-24T06:11:55.115Z,-2.64
2019-02-24T06:14:24.659Z,-2.43
2019-02-24T06:16:54.267Z,-2.36
2019-02-24T06:19:23.969Z,-2.16
2019-02-24T06:21:53.523Z,-2.08
2019-02-24T06:24:23.120Z,-1.98
2019-02-24T06:26:52.650Z,-1.88
2019-02-24T06:29:22.195Z,-1.75
2019-02-24T06:31:51.741Z,-1.71
2019-02-24T06:34:21.274Z,-1.48
2019-02-24T06:36:50.862Z,-1.44
2019-02-24T06:39:20.472Z,-1.39
2019-02-24T06:41:50.081Z,-1.39
2019-02-24T06:44:19.666Z,-1.40
2019-02-24T06:46:49.249Z,-1.12
2019-02-24T06:49:18.781Z,-1.06
2019-02-24T06:51:48.313Z,-0.97
2019-02-24T06:54:17.891Z,-0.92
2019-02-24T06:56:47.505Z,-0.79
2019-02-24T06:59:17.052Z,-0.98
2019-02-24T07:01:46.582Z,-0.88
2019-02-24T07:04:16.137Z,-0.91
2019-02-24T07:06:45.695Z,-0.87
2019-02-24T07:09:15.245Z,-1.06
2019-02-24T07:11:44.824Z,-1.04
2019-02-24T07:14:14.351Z,-0.98
2019-02-24T07:16:43.909Z,-0.88
2019-02-24T07:19:13.457Z,-0.77
2019-02-24T07:21:43.024Z,-0.47
2019-02-24T07:24:12.570Z,-0.16
2019-02-24T07:26:42.122Z,0.20
2019-02-24T07:29:11.696Z,0.34
2019-02-24T07:31:41.222Z,0.51
2019-02-24T07:34:10.778Z,1.01
2019-02-24T07:36:40.328Z,1.29
2019-02-24T07:39:09.877Z,1.09
2019-02-24T07:41:39.429Z,1.08
2019-02-24T07:44:08.971Z,1.09
2019-02-24T07:46:38.525Z,1.06
2019-02-24T07:49:08.097Z,1.13
2019-02-24T07:51:37.653Z,0.90
2019-02-24T07:54:07.242Z,0.98
2019-02-24T07:56:37.392Z,0.18
2019-02-24T07:59:07.009Z,0.15
2019-02-24T08:01:36.637Z,-0.28
2019-02-24T08:04:06.193Z,-0.47
2019-02-24T08:06:35.862Z,-0.13
2019-02-24T08:09:05.422Z,0.02
2019-02-24T08:11:34.975Z,0.40
2019-02-24T08:14:04.583Z,1.09
2019-02-24T08:16:34.132Z,1.77
2019-02-24T08:19:03.719Z,1.98
2019-02-24T08:21:33.281Z,1.81
2019-02-24T08:24:02.872Z,1.53
2019-02-24T08:26:32.405Z,1.13
2019-02-24T08:29:01.959Z,0.80
2019-02-24T08:31:31.538Z,0.69
2019-02-24T08:34:01.063Z,0.59
2019-02-24T08:36:30.582Z,0.94
2019-02-24T08:39:00.158Z,1.38
2019-02-24T08:41:29.756Z,1.92
2019-02-24T08:43:59.340Z,2.55
2019-02-24T08:46:28.906Z,2.90
2019-02-24T08:48:58.515Z,2.90
2019-02-24T08:51:28.184Z,2.74
2019-02-24T08:53:57.889Z,2.91
2019-02-24T08:56:27.506Z,2.74
2019-02-24T08:58:57.137Z,2.31
2019-02-24T09:01:26.711Z,2.70
2019-02-24T09:03:56.354Z,3.12
2019-02-24T09:06:25.960Z,3.16
2019-02-24T09:08:55.505Z,2.55
2019-02-24T09:11:25.140Z,1.96
2019-02-24T09:13:54.755Z,1.86
2019-02-24T09:16:24.367Z,2.06
2019-02-24T09:18:53.942Z,2.45
2019-02-24T09:21:23.614Z,2.97
2019-02-24T09:23:53.228Z,3.09
2019-02-24T09:26:22.925Z,2.83
2019-02-24T09:28:52.448Z,3.41
2019-02-24T09:31:22.122Z,3.39
2019-02-24T09:33:51.787Z,2.57
2019-02-24T09:36:21.387Z,2.63
2019-02-24T09:38:50.991Z,2.52
2019-02-24T09:41:20.737Z,2.41
2019-02-24T09:43:50.359Z,2.11
2019-02-24T09:46:20.067Z,1.99
2019-02-24T09:48:49.630Z,1.82
2019-02-24T09:51:19.187Z,2.15
2019-02-24T09:53:48.885Z,2.60
2019-02-24T09:56:18.521Z,2.43
2019-02-24T09:58:48.203Z,2.44
2019-02-24T10:01:17.809Z,2.51
2019-02-24T10:03:47.405Z,2.18
2019-02-24T10:06:16.980Z,3.16
2019-02-24T10:08:46.702Z,3.28
2019-02-24T10:11:16.454Z,3.02
2019-02-24T10:13:45.989Z,2.56
2019-02-24T10:16:15.698Z,2.98
2019-02-24T10:18:45.372Z,3.64
2019-02-24T10:21:15.012Z,3.58
2019-02-24T10:23:44.548Z,3.41
2019-02-24T10:26:14.225Z,3.04
2019-02-24T10:28:44.001Z,2.60
2019-02-24T10:31:19.868Z,2.36
2019-02-24T10:33:45.053Z,2.08
2019-02-24T10:36:14.608Z,1.95
2019-02-24T10:38:44.278Z,1.67
2019-02-24T10:41:13.811Z,1.27
2019-02-24T10:43:43.539Z,1.10
2019-02-24T10:46:13.114Z,1.04
2019-02-24T10:48:42.647Z,0.77
2019-02-24T10:51:12.266Z,0.67
2019-02-24T10:53:41.807Z,0.81
2019-02-24T10:56:12.496Z,0.82
2019-02-24T10:58:42.049Z,0.87
2019-02-24T11:01:11.597Z,1.14
2019-02-24T11:03:41.128Z,1.28
2019-02-24T11:06:10.761Z,1.53
2019-02-24T11:08:40.322Z,1.90
2019-02-24T11:11:09.997Z,1.92
2019-02-24T11:13:39.526Z,2.18
2019-02-24T11:16:09.149Z,2.12
2019-02-24T11:18:38.881Z,2.22
2019-02-24T11:21:08.490Z,2.74
2019-02-24T11:23:38.173Z,3.42
2019-02-24T11:26:07.702Z,3.76
2019-02-24T11:28:37.411Z,3.43
2019-02-24T11:31:06.950Z,3.02
2019-02-24T11:33:36.518Z,2.36
2019-02-24T11:36:06.076Z,2.12
2019-02-24T11:38:35.606Z,2.06
2019-02-24T11:41:05.147Z,2.02
2019-02-24T11:43:34.795Z,1.94
2019-02-24T11:46:05.259Z,1.95
2019-02-24T11:48:34.830Z,1.96
2019-02-24T11:51:04.484Z,1.94
2019-02-24T11:53:34.051Z,1.95
2019-02-24T11:56:03.606Z,2.72
2019-02-24T11:58:33.192Z,3.19
2019-02-24T12:01:02.896Z,3.22
2019-02-24T12:03:32.440Z,4.04
2019-02-24T12:06:02.034Z,5.03
2019-02-24T12:08:31.795Z,5.47
2019-02-24T12:11:01.405Z,5.15
2019-02-24T12:13:31.058Z,4.86
2019-02-24T12:16:00.656Z,4.79
2019-02-24T12:18:30.317Z,4.21
2019-02-24T12:20:59.868Z,3.89
2019-02-24T12:23:29.419Z,3.66
2019-02-24T12:25:58.987Z,3.41
2019-02-24T12:28:28.557Z,3.17
2019-02-24T12:30:58.271Z,3.33
2019-02-24T12:33:27.813Z,3.09
2019-02-24T12:35:57.351Z,3.02
2019-02-24T12:38:27.003Z,3.30
2019-02-24T12:40:56.549Z,3.40
2019-02-24T12:43:26.242Z,3.38
2019-02-24T12:45:55.809Z,3.30
2019-02-24T12:48:25.337Z,2.75
2019-02-24T12:50:54.893Z,2.89
2019-02-24T12:53:24.527Z,2.79
2019-02-24T12:55:54.097Z,2.59
2019-02-24T12:58:23.639Z,2.49
2019-02-24T13:00:53.576Z,2.70
2019-02-24T13:03:24.195Z,2.56
2019-02-24T13:05:53.932Z,2.49
2019-02-24T13:08:23.491Z,2.37
2019-02-24T13:10:53.122Z,2.45
2019-02-24T13:13:22.645Z,2.67
2019-02-24T13:15:52.276Z,2.83
2019-02-24T13:18:21.880Z,2.60
2019-02-24T13:20:51.672Z,2.37
2019-02-24T13:23:21.228Z,2.51
2019-02-24T13:25:50.795Z,2.47
2019-02-24T13:28:20.340Z,2.52
2019-02-24T13:30:49.886Z,2.28
2019-02-24T13:33:19.446Z,2.08
2019-02-24T13:35:48.998Z,2.42
2019-02-24T13:38:18.546Z,2.19
2019-02-24T13:40:48.134Z,2.09
2019-02-24T13:43:17.683Z,2.17
2019-02-24T13:45:47.234Z,2.10
2019-02-24T13:48:16.772Z,1.89
2019-02-24T13:50:46.436Z,1.97
2019-02-24T13:53:15.980Z,1.79
2019-02-24T13:55:45.598Z,1.69
2019-02-24T13:58:15.263Z,1.42
2019-02-24T14:00:44.899Z,1.47
2019-02-24T14:03:14.534Z,1.28
2019-02-24T14:05:44.111Z,1.23
2019-02-24T14:08:13.769Z,1.29
2019-02-24T14:10:43.408Z,1.23
2019-02-24T14:13:12.970Z,0.86
2019-02-24T14:15:42.528Z,0.67
2019-02-24T14:18:12.107Z,0.53
2019-02-24T14:20:41.702Z,0.13
2019-02-24T14:23:11.315Z,0.01
2019-02-24T14:25:40.925Z,-0.26
2019-02-24T14:28:10.565Z,-0.36
2019-02-24T14:30:40.147Z,-0.59
2019-02-24T14:33:09.872Z,-0.59
2019-02-24T14:35:39.424Z,-0.71
2019-02-24T14:38:09.063Z,-0.84
2019-02-24T14:40:38.655Z,-0.91
2019-02-24T14:43:08.264Z,-0.85
2019-02-24T14:45:37.804Z,-0.80
2019-02-24T14:48:07.351Z,-0.73
2019-02-24T14:50:36.903Z,-0.73
2019-02-24T14:53:06.448Z,-0.73
2019-02-24T14:55:36.024Z,-0.66
2019-02-24T14:58:05.583Z,-0.59
2019-02-24T15:00:35.254Z,-0.59
2019-02-24T15:03:04.841Z,-0.63
2019-02-24T15:05:34.588Z,-0.66
2019-02-24T15:08:04.141Z,-0.60
2019-02-24T15:10:33.733Z,-0.57
2019-02-24T15:13:03.296Z,-0.55
2019-02-24T15:15:33.521Z,-0.54
2019-02-24T15:18:03.305Z,-0.62
2019-02-24T15:20:32.906Z,-0.68
2019-02-24T15:23:02.463Z,-0.60
2019-02-24T15:25:32.083Z,-0.56
2019-02-24T15:28:01.633Z,-0.56
2019-02-24T15:30:32.160Z,-0.55
2019-02-24T15:33:01.718Z,-0.58
2019-02-24T15:35:31.253Z,-0.59
2019-02-24T15:38:00.814Z,-0.55
2019-02-24T15:40:30.498Z,-0.86
2019-02-24T15:43:00.107Z,-0.58
2019-02-24T15:45:29.638Z,-0.57
2019-02-24T15:47:59.230Z,-0.58
2019-02-24T15:50:28.818Z,-0.62
2019-02-24T15:52:58.414Z,-0.65
2019-02-24T15:55:28.002Z,-0.70
2019-02-24T15:57:57.568Z,-0.69
2019-02-24T16:00:27.158Z,-0.69
2019-02-24T16:03:01.600Z,-0.76
2019-02-24T16:05:28.204Z,-0.75
2019-02-24T16:07:57.814Z,-0.80
2019-02-24T16:10:27.354Z,-0.88
2019-02-24T16:12:56.980Z,-0.92
2019-02-24T16:15:26.552Z,-0.95
2019-02-24T16:17:56.115Z,-0.95
2019-02-24T16:20:26.365Z,-0.96
2019-02-24T16:22:56.031Z,-0.95
2019-02-24T16:25:25.684Z,-1.00
2019-02-24T16:27:55.497Z,-1.02
2019-02-24T16:30:25.093Z,-1.07
2019-02-24T16:32:54.629Z,-1.14
2019-02-24T16:35:24.242Z,-1.16
2019-02-24T16:37:53.843Z,-1.13
2019-02-24T16:40:23.525Z,-1.20
2019-02-24T16:42:53.264Z,-1.23
2019-02-24T16:45:22.908Z,-1.29
2019-02-24T16:47:52.463Z,-1.40
2019-02-24T16:50:22.113Z,-1.56
2019-02-24T16:52:51.806Z,-1.71
2019-02-24T16:55:21.392Z,-1.82
2019-02-24T16:57:51.027Z,-2.00
2019-02-24T17:00:20.890Z,-2.14
2019-02-24T17:02:50.455Z,-2.21
2019-02-24T17:05:20.059Z,-2.31
2019-02-24T17:07:49.682Z,-2.38
2019-02-24T17:10:19.840Z,-2.39
2019-02-24T17:12:49.484Z,-2.47
2019-02-24T17:15:19.062Z,-2.49
2019-02-24T17:17:49.118Z,-2.53
2019-02-24T17:20:19.229Z,-2.61
2019-02-24T17:22:48.841Z,-2.66
2019-02-24T17:25:21.318Z,-2.75
2019-02-24T17:27:53.919Z,-2.77
2019-02-24T17:30:24.107Z,-2.79
2019-02-24T17:32:53.906Z,-2.84
2019-02-24T17:35:23.800Z,-2.91
2019-02-24T17:37:53.467Z,-2.94
2019-02-24T17:40:23.564Z,-2.96
2019-02-24T17:42:53.211Z,-3.01
2019-02-24T17:45:23.041Z,-2.97
2019-02-24T17:47:55.891Z,-3.03
2019-02-24T17:50:25.611Z,-3.07
2019-02-24T17:52:55.380Z,-3.14
2019-02-24T17:55:25.548Z,-3.21
2019-02-24T17:57:55.207Z,-3.29
2019-02-24T18:00:30.498Z,-3.36
2019-02-24T18:03:00.162Z,-3.40
2019-02-24T18:05:29.853Z,-3.45
2019-02-24T18:07:59.472Z,-3.48
2019-02-24T18:10:29.119Z,-3.54
2019-02-24T18:12:58.734Z,-3.58
2019-02-24T18:15:28.330Z,-3.64
2019-02-24T18:17:57.873Z,-3.71
2019-02-24T18:20:27.423Z,-3.72
2019-02-24T18:22:57.013Z,-3.76
2019-02-24T18:25:26.650Z,-3.78
2019-02-24T18:27:56.232Z,-3.84
2019-02-24T18:30:25.823Z,-3.89
2019-02-24T18:32:55.391Z,-3.93
2019-02-24T18:35:25.015Z,-3.97
2019-02-24T18:37:54.768Z,-4.05
2019-02-24T18:40:24.351Z,-4.05
2019-02-24T18:43:00.147Z,-4.06
2019-02-24T18:45:25.238Z,-4.07
2019-02-24T18:47:54.853Z,-4.11
2019-02-24T18:50:24.473Z,-4.12
2019-02-24T18:52:54.061Z,-4.16
2019-02-24T18:55:23.762Z,-4.21
2019-02-24T18:57:53.414Z,-4.22
2019-02-24T19:00:23.039Z,-4.30
2019-02-24T19:02:54.815Z,-4.29
2019-02-24T19:05:23.941Z,-4.34
2019-02-24T19:07:53.490Z,-4.34
2019-02-24T19:10:23.057Z,-4.38
2019-02-24T19:12:52.593Z,-4.38
2019-02-24T19:15:22.176Z,-4.50
2019-02-24T19:17:51.742Z,-4.50
2019-02-24T19:20:21.377Z,-4.46
2019-02-24T19:22:50.930Z,-4.49
2019-02-24T19:25:20.505Z,-4.56
2019-02-24T19:27:50.055Z,-4.56
2019-02-24T19:30:19.682Z,-4.56
2019-02-24T19:32:49.255Z,-4.56
2019-02-24T19:35:18.829Z,-4.61
2019-02-24T19:37:48.389Z,-4.65
2019-02-24T19:40:18.173Z,-4.69
2019-02-24T19:42:47.727Z,-4.71
2019-02-24T19:45:17.895Z,-4.79
2019-02-24T19:47:47.453Z,-4.75
2019-02-24T19:50:17.459Z,-4.80
2019-02-24T19:52:47.075Z,-4.89
2019-02-24T19:55:16.645Z,-4.85
2019-02-24T19:57:46.202Z,-4.89
2019-02-24T20:00:18.693Z,-4.93
2019-02-24T20:02:48.373Z,-4.93
2019-02-24T20:05:18.044Z,-4.87
2019-02-24T20:07:47.742Z,-4.92
2019-02-24T20:10:18.901Z,-4.95
2019-02-24T20:12:48.469Z,-5.04
2019-02-24T20:15:18.153Z,-4.99
2019-02-24T20:17:47.724Z,-4.99
2019-02-24T20:20:17.395Z,-4.99
2019-02-24T20:22:47.011Z,-5.04
2019-02-24T20:25:16.697Z,-5.07
2019-02-24T20:27:46.240Z,-5.07
2019-02-24T20:30:18.777Z,-5.21
2019-02-24T20:32:48.582Z,-5.28
2019-02-24T20:35:18.173Z,-5.28
2019-02-24T20:37:47.881Z,-5.25
2019-02-24T20:40:17.435Z,-5.27
2019-02-24T20:42:47.021Z,-5.29
2019-02-24T20:45:17.603Z,-5.30
2019-02-24T20:47:47.192Z,-5.31
2019-02-24T20:50:17.826Z,-5.35
2019-02-24T20:52:47.402Z,-5.45
2019-02-24T20:55:17.090Z,-5.45
2019-02-24T20:57:47.260Z,-5.48
2019-02-24T21:00:22.860Z,-5.61
2019-02-24T21:02:52.431Z,-5.69
2019-02-24T21:05:21.978Z,-5.80
2019-02-24T21:07:51.600Z,-5.80
2019-02-24T21:10:21.179Z,-5.86
2019-02-24T21:12:50.741Z,-5.89
2019-02-24T21:15:20.330Z,-5.88
2019-02-24T21:17:49.900Z,-5.86
2019-02-24T21:20:21.411Z,-5.88
2019-02-24T21:22:51.089Z,-5.85
2019-02-24T21:25:20.688Z,-5.90
2019-02-24T21:27:50.296Z,-5.92
2019-02-24T21:30:19.941Z,-5.98
2019-02-24T21:32:49.499Z,-5.98
2019-02-24T21:35:19.119Z,-6.03
2019-02-24T21:37:48.719Z,-6.01
2019-02-24T21:40:18.463Z,-6.01
2019-02-24T21:42:48.013Z,-5.97
2019-02-24T21:45:18.746Z,-5.97
2019-02-24T21:47:48.304Z,-5.94
2019-02-24T21:50:17.998Z,-5.90
2019-02-24T21:52:47.530Z,-5.91
2019-02-24T21:55:17.138Z,-5.91
2019-02-24T21:57:46.698Z,-5.95
2019-02-24T22:00:21.119Z,-6.01
2019-02-24T22:02:50.643Z,-6.03
2019-02-24T22:05:20.193Z,-6.07
2019-02-24T22:07:49.726Z,-6.12
2019-02-24T22:10:19.343Z,-6.14
2019-02-24T22:12:48.993Z,-6.16
2019-02-24T22:15:19.038Z,-6.18
2019-02-24T22:17:48.603Z,-6.21
2019-02-24T22:20:20.140Z,-6.16
2019-02-24T22:22:49.785Z,-6.17
2019-02-24T22:25:19.488Z,-6.18
2019-02-24T22:27:49.043Z,-6.21
2019-02-24T22:30:18.811Z,-6.25
2019-02-24T22:32:48.511Z,-6.27
2019-02-24T22:35:18.046Z,-6.28
2019-02-24T22:37:47.633Z,-6.28
2019-02-24T22:40:17.349Z,-6.27
2019-02-24T22:42:46.877Z,-6.31
2019-02-24T22:45:17.260Z,-6.31
2019-02-24T22:47:46.987Z,-6.29
2019-02-24T22:50:16.632Z,-6.27
2019-02-24T22:52:46.232Z,-6.25
2019-02-24T22:55:15.827Z,-6.26
2019-02-24T22:57:45.421Z,-6.30
2019-02-24T23:00:50.319Z,-6.31
2019-02-24T23:03:19.963Z,-6.38
2019-02-24T23:05:49.505Z,-6.46
2019-02-24T23:08:19.049Z,-6.52
2019-02-24T23:10:48.743Z,-6.57
2019-02-24T23:13:18.281Z,-6.62
2019-02-24T23:15:47.836Z,-6.62
2019-02-24T23:18:17.382Z,-6.62
2019-02-24T23:20:47.099Z,-6.62
2019-02-24T23:23:16.640Z,-6.55
2019-02-24T23:25:46.212Z,-6.51
2019-02-24T23:28:15.896Z,-6.49
2019-02-24T23:30:45.607Z,-6.51
2019-02-24T23:33:15.316Z,-6.50
2019-02-24T23:35:44.938Z,-6.53
2019-02-24T23:38:14.614Z,-6.53
2019-02-24T23:40:44.171Z,-6.52
2019-02-24T23:43:13.794Z,-6.53
2019-02-24T23:45:43.383Z,-6.48
2019-02-24T23:48:13.002Z,-6.49
